Rome, MS (38768)

12:32 AM CDT on April 26, 2017 (GMT -0500)
| | Change Station
Active Advisory: Wind Advisory

Elev -9999 ft 0.00 °N, 0.00 °E | Updated 6 minutes ago

Clear
Clear
°F
Feels Like °F
N
Wind Variable Wind from North
Gusts mph

Today
High -- | Low -- °F
--% Chance of Precip.
Yesterday
High -- | Low -- °F
Precip. -- in
Pressure 29.64 in
Visibility 10.0 miles
Clouds Clear
Dew Point Not available.
Humidity Not available.
Rainfall --
Snow Depth Not available.
6:17 AM 7:41 PM
Waning Crescent, 0% visible
METAR KRNV 260515Z AUTO 19009KT 10SM CLR 21/15 A2964 RMK AO2 T02060146
Pressure 29.64 in
Visibility 10.0 miles
Clouds Clear
Dew Point Not available.
Humidity Not available.
Rainfall --
Snow Depth Not available.
6:17 AM 7:41 PM
Waning Crescent, 0% visible
METAR KRNV 260515Z AUTO 19009KT 10SM CLR 21/15 A2964 RMK AO2 T02060146

Get Your Daily Forecast Email!

Thanks for signing up!

Be on the lookout for a verification email in your inbox.

You'll start receiving severe weather alerts in your inbox..

×

10-Day Weather Forecast

Almanac

Astronomy

Apr. 26, 2017 Rise Set
Actual Time
Civil Twilight
Nautical Twilight
Astronomical Twilight
Moon
Length of Visible Light
Length of Day
Tomorrow will be .
, % of the Moon is Illuminated

Today's Extremes

State Highs State Lows

Community

WunderPhotos

WunderBlog® & News

Nearby

Air Quality

  Air Quality AQ Index Pollutant
Not available.

Snow Depth

Station Depth Elevation

Earthquake Activity

City Distance Mag. Time & Date
Minimum magnitude displayed is 2.5.

Coastal Water Temperatures

Place Temperature

Stations

Nearby Weather Stations

Station Location Temp. Windchill Dew Point Humidity Wind Precip. Elev Updated Type
                   

Watches & Warnings

Wind Advisory
Issued: 9:09 PM CDT Apr. 25, 2017 – National Weather Service

... Wind Advisory in effect from 11 am to 6 PM CDT Wednesday...

The National Weather Service in Jackson has issued a Wind
Advisory, which is in effect from 11 am to 6 PM CDT Wednesday.

* Timing... Wednesday afternoon and evening

* winds... southerly winds will gust up to 45mph

* impacts... large limbs and a few trees may be blown down.
Travel could be more difficult, especially for high profile
vehicles.

Precautionary/preparedness actions...

A Wind Advisory means that winds of 35 mph are expected. Winds
this strong can make driving difficult, especially for high
profile vehicles. Use extra caution when driving.
Wind gusts of 30 to 40 mph occasionally bring down large limbs
and rotted trees causing serious injury and property damage.
Exercise caution when outdoors during these conditions.